createdAt,value
2019-02-04T00:01:33.204Z,-2.20
2019-02-04T00:04:04.200Z,-2.20
2019-02-04T00:06:34.225Z,-2.30
2019-02-04T00:09:02.622Z,-2.30
2019-02-04T00:11:35.808Z,-2.30
2019-02-04T00:14:06.282Z,-2.50
2019-02-04T00:16:56.836Z,-2.60
2019-02-04T00:19:26.765Z,-2.70
2019-02-04T00:21:55.152Z,-2.90
2019-02-04T00:24:23.553Z,-3.00
2019-02-04T00:26:52.194Z,-3.10
2019-02-04T00:29:20.596Z,-3.00
2019-02-04T00:31:49.612Z,-3.10
2019-02-04T00:34:29.565Z,-3.20
2019-02-04T00:36:58.194Z,-3.30
2019-02-04T00:39:26.585Z,-3.40
2019-02-04T00:41:54.981Z,-3.40
2019-02-04T00:44:23.373Z,-3.40
2019-02-04T00:46:52.558Z,-3.50
2019-02-04T00:49:21.913Z,-3.50
2019-02-04T00:51:50.313Z,-3.60
2019-02-04T00:54:21.369Z,-3.70
2019-02-04T00:56:49.759Z,-3.60
2019-02-04T00:59:18.161Z,-3.40
2019-02-04T01:01:49.073Z,-3.20
2019-02-04T01:04:20.797Z,-3.20
2019-02-04T01:06:52.137Z,-3.20
2019-02-04T01:09:25.029Z,-3.20
2019-02-04T01:11:53.453Z,-3.20
2019-02-04T01:14:21.845Z,-3.20
2019-02-04T01:17:03.207Z,-3.20
2019-02-04T01:19:25.704Z,-3.20
2019-02-04T01:21:54.342Z,-3.20
2019-02-04T01:24:27.220Z,-3.10
2019-02-04T01:27:10.444Z,-3.10
2019-02-04T01:29:38.842Z,-3.10
2019-02-04T01:32:09.937Z,-3.10
2019-02-04T01:34:48.887Z,-3.10
2019-02-04T01:37:17.225Z,-3.10
2019-02-04T01:39:45.647Z,-3.10
2019-02-04T01:42:20.226Z,-3.00
2019-02-04T01:44:48.629Z,-3.10
2019-02-04T01:47:17.092Z,-3.20
2019-02-04T01:49:48.669Z,-3.30
2019-02-04T01:52:17.302Z,-3.40
2019-02-04T01:54:45.942Z,-3.50
2019-02-04T01:57:20.701Z,-3.60
2019-02-04T01:59:53.941Z,-3.60
2019-02-04T02:02:28.418Z,-3.70
2019-02-04T02:05:02.550Z,-3.80
2019-02-04T02:07:32.237Z,-3.90
2019-02-04T02:10:11.191Z,-4.00
2019-02-04T02:12:42.301Z,-3.90
2019-02-04T02:15:13.867Z,-3.90
2019-02-04T02:17:48.998Z,-3.90
2019-02-04T02:20:29.741Z,-4.00
2019-02-04T02:22:59.064Z,-4.00
2019-02-04T02:25:36.085Z,-4.20
2019-02-04T02:28:09.457Z,-4.20
2019-02-04T02:30:38.131Z,-4.20
2019-02-04T02:33:07.835Z,-4.30
2019-02-04T02:35:36.303Z,-4.30
2019-02-04T02:38:07.200Z,-4.30
2019-02-04T02:40:38.344Z,-4.40
2019-02-04T02:43:06.746Z,-4.40
2019-02-04T02:45:40.766Z,-4.40
2019-02-04T02:48:09.189Z,-4.30
2019-02-04T02:50:40.332Z,-4.30
2019-02-04T02:53:10.608Z,-4.10
2019-02-04T02:55:39.789Z,-4.10
2019-02-04T02:58:14.749Z,-4.10
2019-02-04T03:00:47.689Z,-4.00
2019-02-04T03:03:18.813Z,-3.90
2019-02-04T03:05:56.205Z,-4.00
2019-02-04T03:08:27.898Z,-3.80
2019-02-04T03:10:57.246Z,-3.60
2019-02-04T03:13:30.092Z,-3.80
2019-02-04T03:15:58.440Z,-4.00
2019-02-04T03:18:32.769Z,-4.10
2019-02-04T03:21:04.109Z,-4.20
2019-02-04T03:23:35.668Z,-4.20
2019-02-04T03:26:04.069Z,-4.30
2019-02-04T03:28:35.363Z,-4.40
2019-02-04T03:31:05.297Z,-4.40
2019-02-04T03:33:40.146Z,-4.40
2019-02-04T03:36:10.173Z,-4.50
2019-02-04T03:38:40.213Z,-4.40
2019-02-04T03:41:08.838Z,-4.40
2019-02-04T03:43:37.240Z,-4.40
2019-02-04T03:46:06.758Z,-4.30
2019-02-04T03:48:37.634Z,-4.30
2019-02-04T03:51:07.953Z,-4.40
2019-02-04T03:53:39.026Z,-4.50
2019-02-04T03:56:10.390Z,-4.60
2019-02-04T03:58:41.322Z,-4.60
2019-02-04T04:01:18.414Z,-4.50
2019-02-04T04:03:49.989Z,-4.50
2019-02-04T04:06:21.281Z,-4.40
2019-02-04T04:08:54.498Z,-4.30
2019-02-04T04:11:22.884Z,-4.30
2019-02-04T04:13:51.383Z,-4.30
2019-02-04T04:16:19.776Z,-4.40
2019-02-04T04:18:48.194Z,-4.20
2019-02-04T04:21:16.576Z,-4.10
2019-02-04T04:23:48.904Z,-4.10
2019-02-04T04:26:17.314Z,-4.20
2019-02-04T04:28:45.702Z,-4.30
2019-02-04T04:31:14.345Z,-4.40
2019-02-04T04:33:45.439Z,-4.40
2019-02-04T04:36:13.839Z,-4.50
2019-02-04T04:38:42.901Z,-4.60
2019-02-04T04:41:18.726Z,-4.50
2019-02-04T04:43:47.121Z,-4.50
2019-02-04T04:46:15.753Z,-4.60
2019-02-04T04:48:46.989Z,-4.60
2019-02-04T04:51:17.884Z,-4.70
2019-02-04T04:53:49.067Z,-4.70
2019-02-04T04:56:20.201Z,-4.60
2019-02-04T04:58:52.949Z,-4.50
2019-02-04T05:01:24.704Z,-4.50
2019-02-04T05:03:56.493Z,-4.40
2019-02-04T05:06:27.702Z,-4.40
2019-02-04T05:08:56.861Z,-4.50
2019-02-04T05:11:27.658Z,-4.40
2019-02-04T05:13:56.087Z,-4.50
2019-02-04T05:16:49.592Z,-4.60
2019-02-04T05:19:22.368Z,-4.60
2019-02-04T05:21:53.886Z,-4.50
2019-02-04T05:24:28.141Z,-4.60
2019-02-04T05:27:00.885Z,-4.70
2019-02-04T05:29:30.533Z,-4.80
2019-02-04T05:31:58.892Z,-4.90
2019-02-04T05:34:30.005Z,-5.00
2019-02-04T05:36:58.405Z,-5.00
2019-02-04T05:39:26.793Z,-5.00
2019-02-04T05:41:55.257Z,-5.10
2019-02-04T05:44:28.009Z,-5.10
2019-02-04T05:46:59.366Z,-5.10
2019-02-04T05:49:41.289Z,-5.00
2019-02-04T05:52:10.474Z,-4.90
2019-02-04T05:54:39.109Z,-4.90
2019-02-04T05:57:09.142Z,-4.90
2019-02-04T05:59:38.821Z,-4.70
2019-02-04T06:02:28.492Z,-4.60
2019-02-04T06:05:02.967Z,-4.50
2019-02-04T06:07:49.402Z,-4.40
2019-02-04T06:10:19.732Z,-4.50
2019-02-04T06:12:48.956Z,-4.60
2019-02-04T06:15:21.361Z,-4.70
2019-02-04T06:17:49.832Z,-4.80
2019-02-04T06:20:21.628Z,-4.90
2019-02-04T06:22:55.593Z,-4.90
2019-02-04T06:25:24.275Z,-4.70
2019-02-04T06:27:58.440Z,-4.60
2019-02-04T06:30:26.843Z,-4.60
2019-02-04T06:32:55.225Z,-4.50
2019-02-04T06:35:23.653Z,-4.50
2019-02-04T06:37:57.624Z,-4.60
2019-02-04T06:40:26.024Z,-4.60
2019-02-04T06:42:54.409Z,-4.50
2019-02-04T06:45:27.670Z,-4.40
2019-02-04T06:47:57.009Z,-4.40
2019-02-04T06:50:27.038Z,-4.50
2019-02-04T06:52:58.393Z,-4.50
2019-02-04T06:55:34.985Z,-4.40
2019-02-04T06:58:17.028Z,-4.50
2019-02-04T07:00:45.545Z,-4.50
2019-02-04T07:03:13.998Z,-4.60
2019-02-04T07:05:43.977Z,-4.50
2019-02-04T07:08:12.535Z,-4.60
2019-02-04T07:10:40.922Z,-4.50
2019-02-04T07:13:09.401Z,-4.30
2019-02-04T07:15:39.935Z,-4.30
2019-02-04T07:18:08.382Z,-4.20
2019-02-04T07:20:36.769Z,-4.00
2019-02-04T07:23:05.168Z,-3.90
2019-02-04T07:25:36.492Z,-3.80
2019-02-04T07:28:04.945Z,-3.90
2019-02-04T07:30:40.191Z,-3.90
2019-02-04T07:33:08.741Z,-3.70
2019-02-04T07:35:38.025Z,-3.40
2019-02-04T07:38:09.436Z,-3.10
2019-02-04T07:40:44.250Z,-2.70
2019-02-04T07:43:14.466Z,-2.20
2019-02-04T07:45:54.876Z,-1.90
2019-02-04T07:48:24.537Z,-1.70
2019-02-04T07:50:52.945Z,-1.50
2019-02-04T07:53:25.393Z,-1.30
2019-02-04T07:55:55.355Z,-1.00
2019-02-04T07:58:28.142Z,-0.70
2019-02-04T08:01:00.928Z,-0.50
2019-02-04T08:03:29.327Z,-0.20
2019-02-04T08:06:00.703Z,-0.10
2019-02-04T08:08:32.763Z,0.00
2019-02-04T08:11:04.211Z,0.40
2019-02-04T08:13:32.788Z,0.50
2019-02-04T08:16:01.192Z,0.70
2019-02-04T08:18:35.789Z,0.90
2019-02-04T08:21:05.911Z,1.20
2019-02-04T08:23:35.929Z,1.30
2019-02-04T08:26:04.913Z,1.60
2019-02-04T08:28:36.397Z,1.80
2019-02-04T08:31:05.786Z,2.00
2019-02-04T08:33:39.604Z,2.20
2019-02-04T08:36:08.750Z,2.50
2019-02-04T08:38:37.137Z,2.80
2019-02-04T08:41:05.777Z,2.90
2019-02-04T08:43:37.121Z,2.80
2019-02-04T08:46:05.521Z,2.80
2019-02-04T08:48:42.903Z,3.20
2019-02-04T08:51:12.958Z,3.40
2019-02-04T08:53:41.727Z,3.70
2019-02-04T08:56:13.120Z,3.30
2019-02-04T08:58:45.909Z,3.40
2019-02-04T09:01:14.522Z,3.30
2019-02-04T09:03:49.493Z,3.00
2019-02-04T09:06:17.873Z,2.70
2019-02-04T09:08:46.305Z,2.90
2019-02-04T09:11:15.468Z,2.90
2019-02-04T09:13:51.217Z,3.10
2019-02-04T09:16:20.729Z,3.10
2019-02-04T09:18:50.987Z,3.20
2019-02-04T09:21:19.469Z,3.20
2019-02-04T09:23:47.848Z,3.50
2019-02-04T09:26:18.946Z,3.80
2019-02-04T09:28:52.991Z,4.10
2019-02-04T09:31:21.389Z,4.40
2019-02-04T09:33:49.781Z,4.60
2019-02-04T09:36:21.105Z,5.00
2019-02-04T09:38:52.864Z,5.20
2019-02-04T09:41:21.263Z,5.60
2019-02-04T09:43:49.640Z,5.90
2019-02-04T09:46:19.747Z,5.80
2019-02-04T09:48:51.224Z,5.70
2019-02-04T09:51:21.262Z,5.30
2019-02-04T09:53:52.308Z,5.30
2019-02-04T09:56:22.238Z,5.70
2019-02-04T09:58:56.381Z,5.80
2019-02-04T10:01:27.769Z,5.90
2019-02-04T10:03:56.166Z,6.20
2019-02-04T10:06:24.637Z,6.30
2019-02-04T10:08:58.564Z,6.50
2019-02-04T10:11:27.299Z,6.70
2019-02-04T10:13:58.629Z,7.20
2019-02-04T10:16:27.056Z,7.90
2019-02-04T10:19:01.719Z,7.80
2019-02-04T10:21:30.196Z,7.70
2019-02-04T10:24:00.209Z,7.70
2019-02-04T10:26:33.031Z,7.50
2019-02-04T10:29:07.302Z,7.50
2019-02-04T10:31:38.744Z,7.90
2019-02-04T10:34:09.010Z,8.30
2019-02-04T10:36:45.409Z,8.70
2019-02-04T10:39:13.825Z,8.50
2019-02-04T10:41:45.162Z,7.80
2019-02-04T10:44:17.307Z,7.20
2019-02-04T10:46:45.773Z,6.90
2019-02-04T10:49:15.214Z,6.50
2019-02-04T10:51:43.650Z,6.70
2019-02-04T10:54:13.454Z,6.70
2019-02-04T10:56:42.976Z,6.80
2019-02-04T10:59:11.362Z,6.80
2019-02-04T11:01:39.815Z,6.80
2019-02-04T11:04:08.465Z,6.70
2019-02-04T11:06:36.853Z,7.20
2019-02-04T11:09:09.602Z,7.90
2019-02-04T11:11:39.175Z,7.80
2019-02-04T11:14:10.949Z,7.80
2019-02-04T11:16:40.833Z,7.80
2019-02-04T11:19:10.153Z,7.60
2019-02-04T11:21:38.573Z,7.10
2019-02-04T11:24:07.704Z,7.00
2019-02-04T11:26:36.160Z,7.00
2019-02-04T11:29:06.899Z,6.80
2019-02-04T11:31:36.218Z,7.10
2019-02-04T11:34:06.114Z,7.20
2019-02-04T11:36:34.631Z,7.10
2019-02-04T11:39:03.041Z,6.90
2019-02-04T11:41:31.536Z,6.90
2019-02-04T11:44:00.038Z,6.90
2019-02-04T11:46:28.393Z,6.90
2019-02-04T11:48:57.674Z,6.60
2019-02-04T11:51:26.068Z,6.60
2019-02-04T11:53:54.472Z,6.90
2019-02-04T11:56:26.061Z,7.20
2019-02-04T11:58:54.456Z,7.20
2019-02-04T12:01:22.843Z,7.10
2019-02-04T12:03:51.914Z,6.80
2019-02-04T12:06:20.306Z,6.50
2019-02-04T12:08:48.951Z,6.60
2019-02-04T12:11:18.476Z,6.70
2019-02-04T12:13:47.267Z,6.80
2019-02-04T12:16:16.465Z,7.10
2019-02-04T12:18:45.881Z,6.90
2019-02-04T12:21:21.559Z,6.80
2019-02-04T12:23:48.483Z,7.00
2019-02-04T12:26:17.174Z,7.10
2019-02-04T12:28:45.804Z,7.40
2019-02-04T12:31:14.194Z,7.80
2019-02-04T12:33:43.665Z,7.70
2019-02-04T12:36:12.054Z,7.60
2019-02-04T12:38:40.456Z,7.40
2019-02-04T12:41:08.855Z,7.60
2019-02-04T12:43:37.248Z,7.40
2019-02-04T12:46:07.161Z,7.90
2019-02-04T12:48:35.938Z,8.20
2019-02-04T12:51:05.161Z,8.10
2019-02-04T12:53:37.021Z,8.00
2019-02-04T12:56:05.487Z,7.90
2019-02-04T12:58:34.923Z,8.00
2019-02-04T13:01:05.740Z,8.10
2019-02-04T13:03:34.128Z,8.20
2019-02-04T13:06:03.914Z,8.20
2019-02-04T13:08:32.338Z,8.20
2019-02-04T13:11:00.729Z,8.30
2019-02-04T13:13:29.358Z,8.40
2019-02-04T13:15:57.757Z,8.50
2019-02-04T13:18:26.921Z,8.40
2019-02-04T13:20:55.309Z,8.30
2019-02-04T13:23:23.723Z,8.30
2019-02-04T13:25:52.108Z,8.00
2019-02-04T13:28:21.321Z,7.50
2019-02-04T13:30:49.907Z,7.40
2019-02-04T13:33:21.475Z,7.60
2019-02-04T13:35:49.865Z,7.70
2019-02-04T13:38:18.277Z,7.80
2019-02-04T13:40:46.917Z,7.60
2019-02-04T13:43:15.446Z,7.60
2019-02-04T13:45:45.109Z,7.40
2019-02-04T13:48:15.657Z,7.30
2019-02-04T13:50:44.058Z,7.10
2019-02-04T13:53:12.526Z,6.90
2019-02-04T13:55:41.741Z,6.80
2019-02-04T13:58:11.673Z,6.30
2019-02-04T14:00:40.077Z,6.00
2019-02-04T14:03:10.891Z,5.70
2019-02-04T14:05:39.270Z,5.40
2019-02-04T14:08:08.329Z,5.40
2019-02-04T14:10:39.795Z,5.30
2019-02-04T14:13:09.734Z,5.30
2019-02-04T14:15:43.994Z,5.10
2019-02-04T14:18:12.380Z,5.20
2019-02-04T14:20:41.013Z,5.20
2019-02-04T14:23:21.049Z,5.20
2019-02-04T14:25:49.451Z,5.20
2019-02-04T14:28:19.290Z,5.20
2019-02-04T14:30:47.695Z,5.20
2019-02-04T14:33:16.138Z,5.20
2019-02-04T14:35:47.222Z,5.10
2019-02-04T14:38:15.630Z,5.10
2019-02-04T14:40:44.015Z,5.10
2019-02-04T14:43:15.945Z,5.20
2019-02-04T14:45:56.414Z,5.10
2019-02-04T14:48:49.301Z,5.10
2019-02-04T14:51:39.319Z,5.00
2019-02-04T14:54:38.252Z,4.90
2019-02-04T14:57:15.617Z,4.70
2019-02-04T14:59:53.152Z,4.60
2019-02-04T15:02:45.496Z,4.60
2019-02-04T15:05:25.769Z,4.50
2019-02-04T15:08:11.545Z,4.40
2019-02-04T15:11:04.137Z,4.40
2019-02-04T15:13:41.333Z,4.30
2019-02-04T15:16:19.494Z,4.20
2019-02-04T15:19:24.550Z,4.10
2019-02-04T15:21:59.821Z,4.00
2019-02-04T15:25:12.859Z,4.00
2019-02-04T15:27:46.289Z,3.90
2019-02-04T15:30:41.753Z,3.90
2019-02-04T15:33:29.690Z,3.80
2019-02-04T15:36:16.193Z,3.70
2019-02-04T15:38:55.418Z,3.60
2019-02-04T15:41:35.485Z,3.50
2019-02-04T15:44:21.718Z,3.50
2019-02-04T15:46:56.079Z,3.40
2019-02-04T15:49:36.418Z,3.30
2019-02-04T15:52:05.065Z,3.20
2019-02-04T15:54:36.253Z,3.10
2019-02-04T15:57:06.559Z,3.00
2019-02-04T15:59:36.761Z,3.00
2019-02-04T16:02:05.256Z,2.90
2019-02-04T16:04:36.005Z,2.80
2019-02-04T16:07:06.925Z,2.80
2019-02-04T16:09:35.387Z,2.80
2019-02-04T16:12:03.783Z,2.70
2019-02-04T16:14:41.837Z,2.60
2019-02-04T16:17:11.526Z,2.60
2019-02-04T16:19:43.513Z,2.60
2019-02-04T16:22:12.041Z,2.50
2019-02-04T16:24:41.172Z,2.40
2019-02-04T16:27:16.880Z,2.20
2019-02-04T16:29:52.582Z,2.10
2019-02-04T16:32:21.864Z,2.00
2019-02-04T16:34:50.254Z,1.90
2019-02-04T16:37:20.273Z,1.80
2019-02-04T16:39:52.501Z,1.80
2019-02-04T16:42:25.297Z,1.70
2019-02-04T16:44:59.475Z,1.60
2019-02-04T16:47:31.072Z,1.50
2019-02-04T16:50:02.377Z,1.40
2019-02-04T16:52:33.576Z,1.40
2019-02-04T16:55:01.966Z,1.30
2019-02-04T16:57:33.010Z,1.20
2019-02-04T17:00:01.432Z,1.10
2019-02-04T17:02:35.841Z,1.10
2019-02-04T17:05:10.182Z,1.00
2019-02-04T17:07:38.674Z,1.00
2019-02-04T17:10:10.316Z,0.90
2019-02-04T17:12:38.777Z,0.80
2019-02-04T17:15:10.868Z,0.80
2019-02-04T17:17:39.248Z,0.80
2019-02-04T17:20:16.735Z,0.70
2019-02-04T17:22:48.426Z,0.60
2019-02-04T17:25:17.167Z,0.50
2019-02-04T17:27:45.563Z,0.40
2019-02-04T17:30:17.029Z,0.40
2019-02-04T17:32:45.424Z,0.30
2019-02-04T17:35:17.834Z,0.30
2019-02-04T17:37:45.009Z,0.30
2019-02-04T17:40:21.640Z,0.20
2019-02-04T17:42:52.694Z,0.20
2019-02-04T17:45:21.833Z,0.20
2019-02-04T17:47:53.355Z,0.20
2019-02-04T17:50:22.576Z,0.20
2019-02-04T17:52:54.098Z,0.10
2019-02-04T17:55:31.986Z,0.20
2019-02-04T17:58:02.026Z,0.20
2019-02-04T18:00:37.742Z,0.30
2019-02-04T18:03:10.008Z,0.30
2019-02-04T18:05:38.696Z,0.20
2019-02-04T18:08:10.526Z,0.20
2019-02-04T18:10:47.025Z,0.10
2019-02-04T18:13:18.361Z,0.00
2019-02-04T18:15:46.773Z,-0.10
2019-02-04T18:18:20.849Z,-0.30
2019-02-04T18:20:51.892Z,-0.40
2019-02-04T18:23:22.232Z,-0.60
2019-02-04T18:25:50.689Z,-0.80
2019-02-04T18:28:23.553Z,-0.90
2019-02-04T18:30:52.689Z,-1.00
2019-02-04T18:33:22.717Z,-1.20
2019-02-04T18:35:51.125Z,-1.30
2019-02-04T18:38:19.514Z,-1.50
2019-02-04T18:40:54.426Z,-1.50
2019-02-04T18:43:23.245Z,-1.60
2019-02-04T18:45:51.631Z,-1.50
2019-02-04T18:48:20.048Z,-1.40
2019-02-04T18:50:55.063Z,-1.30
2019-02-04T18:53:24.134Z,-1.20
2019-02-04T18:55:57.989Z,-1.10
2019-02-04T18:58:26.669Z,-1.20
2019-02-04T19:00:55.045Z,-1.20
2019-02-04T19:03:26.120Z,-1.30
2019-02-04T19:05:55.281Z,-1.50
2019-02-04T19:08:23.672Z,-1.70
2019-02-04T19:10:52.069Z,-1.80
2019-02-04T19:13:21.361Z,-1.80
2019-02-04T19:15:51.434Z,-1.90
2019-02-04T19:18:19.877Z,-2.00
2019-02-04T19:20:48.273Z,-2.00
2019-02-04T19:23:16.661Z,-2.00
2019-02-04T19:25:45.096Z,-2.10
2019-02-04T19:28:13.505Z,-2.10
2019-02-04T19:30:50.679Z,-2.10
2019-02-04T19:33:20.740Z,-2.00
2019-02-04T19:35:49.205Z,-2.00
2019-02-04T19:38:17.609Z,-2.00
2019-02-04T19:40:46.016Z,-1.90
2019-02-04T19:43:14.781Z,-1.80
2019-02-04T19:45:43.185Z,-1.80
2019-02-04T19:48:11.591Z,-1.70
2019-02-04T19:50:39.977Z,-1.70
2019-02-04T19:53:08.373Z,-1.70
2019-02-04T19:55:37.999Z,-1.80
2019-02-04T19:58:09.069Z,-1.80
2019-02-04T20:00:37.485Z,-1.90
2019-02-04T20:03:07.009Z,-1.90
2019-02-04T20:05:36.181Z,-2.00
2019-02-04T20:08:07.298Z,-2.00
2019-02-04T20:10:56.558Z,-2.10
2019-02-04T20:13:24.945Z,-2.20
2019-02-04T20:15:55.660Z,-2.20
2019-02-04T20:18:24.055Z,-2.10
2019-02-04T20:20:52.437Z,-1.90
2019-02-04T20:23:22.471Z,-1.80
2019-02-04T20:25:50.858Z,-1.70
2019-02-04T20:28:19.261Z,-1.70
2019-02-04T20:30:50.704Z,-1.70
2019-02-04T20:33:19.174Z,-1.80
2019-02-04T20:35:47.564Z,-1.80
2019-02-04T20:38:15.972Z,-1.80
2019-02-04T20:40:48.363Z,-1.80
2019-02-04T20:43:17.330Z,-1.80
2019-02-04T20:45:45.712Z,-1.80
2019-02-04T20:48:15.099Z,-1.80
2019-02-04T20:50:49.021Z,-1.80
2019-02-04T20:53:19.061Z,-1.70
2019-02-04T20:55:49.087Z,-1.60
2019-02-04T20:58:17.475Z,-1.60
2019-02-04T21:00:46.239Z,-1.50
2019-02-04T21:03:15.256Z,-1.50
2019-02-04T21:05:43.717Z,-1.50
2019-02-04T21:08:15.055Z,-1.40
2019-02-04T21:10:43.851Z,-1.40
2019-02-04T21:13:19.595Z,-1.30
2019-02-04T21:15:47.990Z,-1.30
2019-02-04T21:18:18.096Z,-1.40
2019-02-04T21:20:49.333Z,-1.40
2019-02-04T21:23:18.604Z,-1.40
2019-02-04T21:25:51.521Z,-1.40
2019-02-04T21:28:29.040Z,-1.40
2019-02-04T21:31:00.367Z,-1.40
2019-02-04T21:33:28.752Z,-1.30
2019-02-04T21:35:57.143Z,-1.30
2019-02-04T21:38:25.793Z,-1.30
2019-02-04T21:40:55.817Z,-1.30
2019-02-04T21:43:24.209Z,-1.30
2019-02-04T21:45:55.541Z,-1.20
2019-02-04T21:48:29.783Z,-1.20
2019-02-04T21:50:58.177Z,-1.00
2019-02-04T21:53:31.218Z,-0.90
2019-02-04T21:56:00.127Z,-0.80
2019-02-04T21:58:29.518Z,-0.70
2019-02-04T22:00:58.125Z,-0.60
2019-02-04T22:03:29.658Z,-0.50
2019-02-04T22:05:58.061Z,-0.40
2019-02-04T22:08:28.088Z,-0.30
2019-02-04T22:11:00.226Z,-0.20
2019-02-04T22:13:31.529Z,-0.10
2019-02-04T22:16:02.666Z,0.00
2019-02-04T22:18:33.746Z,0.10
2019-02-04T22:21:03.773Z,0.20
2019-02-04T22:23:39.506Z,0.20
2019-02-04T22:26:15.208Z,0.20
2019-02-04T22:28:43.609Z,0.30
2019-02-04T22:31:13.628Z,0.30
2019-02-04T22:33:44.945Z,0.30
2019-02-04T22:36:14.969Z,0.40
2019-02-04T22:38:46.080Z,0.40
2019-02-04T22:41:14.461Z,0.40
2019-02-04T22:43:52.677Z,0.40
2019-02-04T22:46:21.109Z,0.40
2019-02-04T22:48:49.504Z,0.40
2019-02-04T22:51:17.949Z,0.40
2019-02-04T22:53:47.165Z,0.40
2019-02-04T22:56:19.969Z,0.40
2019-02-04T22:58:52.988Z,0.40
2019-02-04T23:01:36.041Z,0.40
2019-02-04T23:04:04.020Z,0.40
2019-02-04T23:06:38.128Z,0.40
2019-02-04T23:09:19.282Z,0.30
2019-02-04T23:11:47.719Z,0.30
2019-02-04T23:14:21.362Z,0.30
2019-02-04T23:16:52.520Z,0.20
2019-02-04T23:19:24.522Z,0.20
2019-02-04T23:21:58.630Z,0.20
2019-02-04T23:24:27.018Z,0.20
2019-02-04T23:26:55.502Z,0.20
2019-02-04T23:29:27.004Z,0.20
2019-02-04T23:31:58.134Z,0.20
2019-02-04T23:34:31.100Z,0.20
2019-02-04T23:37:01.127Z,0.30
2019-02-04T23:39:29.517Z,0.30
2019-02-04T23:42:02.625Z,0.30
2019-02-04T23:44:33.604Z,0.30
2019-02-04T23:47:02.014Z,0.30
2019-02-04T23:49:30.510Z,0.30
2019-02-04T23:51:58.898Z,0.30
2019-02-04T23:54:27.532Z,0.30
2019-02-04T23:56:58.916Z,0.30
2019-02-04T23:59:28.185Z,0.40
